sensor_id;sensor_type;location;lat;lon;timestamp;pressure;altitude;pressure_sealevel;temperature;humidity
79362;BME280;68830;47.566;19.012;2023-07-13T00:02:00;99717.31;;;22.61;91.69
79362;BME280;68830;47.566;19.012;2023-07-13T00:05:03;99706.22;;;22.27;92.77
79362;BME280;68830;47.566;19.012;2023-07-13T00:08:05;99728.63;;;22.28;94.07
79362;BME280;68830;47.566;19.012;2023-07-13T00:11:09;99693.88;;;22.08;95.66
79362;BME280;68830;47.566;19.012;2023-07-13T00:14:13;99671.88;;;22.04;96.39
79362;BME280;68830;47.566;19.012;2023-07-13T00:17:15;99683.59;;;21.98;97.15
79362;BME280;68830;47.566;19.012;2023-07-13T00:20:17;99656.25;;;21.95;97.53
79362;BME280;68830;47.566;19.012;2023-07-13T00:23:20;99626.56;;;21.83;96.15
79362;BME280;68830;47.566;19.012;2023-07-13T00:26:24;99618.47;;;21.83;94.24
79362;BME280;68830;47.566;19.012;2023-07-13T00:29:26;99600.31;;;21.78;93.67
79362;BME280;68830;47.566;19.012;2023-07-13T00:32:28;99596.78;;;21.78;93.89
79362;BME280;68830;47.566;19.012;2023-07-13T00:35:31;99576.34;;;21.70;92.67
79362;BME280;68830;47.566;19.012;2023-07-13T00:38:34;99572.59;;;21.71;90.37
79362;BME280;68830;47.566;19.012;2023-07-13T00:41:38;99578.97;;;21.77;89.52
79362;BME280;68830;47.566;19.012;2023-07-13T00:44:39;99571.94;;;21.88;89.96
79362;BME280;68830;47.566;19.012;2023-07-13T00:47:43;99566.63;;;21.69;91.21
79362;BME280;68830;47.566;19.012;2023-07-13T00:50:48;99575.00;;;21.50;92.46
79362;BME280;68830;47.566;19.012;2023-07-13T00:53:51;99568.06;;;21.42;94.64
79362;BME280;68830;47.566;19.012;2023-07-13T00:56:58;99569.56;;;21.38;94.23
79362;BME280;68830;47.566;19.012;2023-07-13T01:00:03;99561.72;;;21.18;95.17
79362;BME280;68830;47.566;19.012;2023-07-13T01:03:08;99585.69;;;21.26;96.99
79362;BME280;68830;47.566;19.012;2023-07-13T01:06:11;99590.66;;;21.23;97.62
79362;BME280;68830;47.566;19.012;2023-07-13T01:09:15;99574.97;;;21.19;97.31
79362;BME280;68830;47.566;19.012;2023-07-13T01:12:19;99579.59;;;21.12;96.79
79362;BME280;68830;47.566;19.012;2023-07-13T01:15:35;99567.34;;;21.16;96.71
79362;BME280;68830;47.566;19.012;2023-07-13T01:18:38;99583.81;;;21.08;96.27
79362;BME280;68830;47.566;19.012;2023-07-13T01:21:41;99577.47;;;21.03;97.75
79362;BME280;68830;47.566;19.012;2023-07-13T01:24:46;99563.56;;;20.87;98.05
79362;BME280;68830;47.566;19.012;2023-07-13T01:27:48;99582.31;;;20.94;98.03
79362;BME280;68830;47.566;19.012;2023-07-13T01:30:50;99584.50;;;20.85;98.13
79362;BME280;68830;47.566;19.012;2023-07-13T01:33:53;99578.28;;;20.85;98.89
79362;BME280;68830;47.566;19.012;2023-07-13T01:36:56;99570.00;;;20.86;99.21
79362;BME280;68830;47.566;19.012;2023-07-13T01:39:58;99570.06;;;20.80;99.05
79362;BME280;68830;47.566;19.012;2023-07-13T01:43:01;99561.09;;;20.68;99.28
79362;BME280;68830;47.566;19.012;2023-07-13T01:46:03;99551.16;;;20.68;99.00
79362;BME280;68830;47.566;19.012;2023-07-13T01:49:23;99554.88;;;20.67;99.26
79362;BME280;68830;47.566;19.012;2023-07-13T01:52:26;99547.47;;;20.63;99.35
79362;BME280;68830;47.566;19.012;2023-07-13T01:55:29;99542.00;;;20.51;98.74
79362;BME280;68830;47.566;19.012;2023-07-13T01:58:31;99539.41;;;20.44;98.83
79362;BME280;68830;47.566;19.012;2023-07-13T02:01:33;99552.16;;;20.49;96.48
79362;BME280;68830;47.566;19.012;2023-07-13T02:04:36;99556.81;;;20.42;97.07
79362;BME280;68830;47.566;19.012;2023-07-13T02:07:40;99549.38;;;20.37;97.65
79362;BME280;68830;47.566;19.012;2023-07-13T02:10:42;99536.44;;;20.27;98.01
79362;BME280;68830;47.566;19.012;2023-07-13T02:13:44;99543.69;;;20.27;97.81
79362;BME280;68830;47.566;19.012;2023-07-13T02:16:46;99555.41;;;20.33;97.90
79362;BME280;68830;47.566;19.012;2023-07-13T02:19:50;99550.25;;;20.31;98.15
79362;BME280;68830;47.566;19.012;2023-07-13T02:22:53;99559.59;;;20.28;98.91
79362;BME280;68830;47.566;19.012;2023-07-13T02:25:55;99555.09;;;20.22;98.10
79362;BME280;68830;47.566;19.012;2023-07-13T02:28:58;99566.47;;;20.24;99.09
79362;BME280;68830;47.566;19.012;2023-07-13T02:32:00;99560.25;;;20.24;98.81
79362;BME280;68830;47.566;19.012;2023-07-13T02:35:02;99571.00;;;20.24;97.39
79362;BME280;68830;47.566;19.012;2023-07-13T02:38:06;99578.88;;;20.25;98.15
79362;BME280;68830;47.566;19.012;2023-07-13T02:41:08;99570.94;;;20.30;95.79
79362;BME280;68830;47.566;19.012;2023-07-13T02:44:12;99556.91;;;20.28;96.28
79362;BME280;68830;47.566;19.012;2023-07-13T02:47:15;99544.47;;;20.09;97.94
79362;BME280;68830;47.566;19.012;2023-07-13T02:50:17;99579.34;;;20.16;98.09
79362;BME280;68830;47.566;19.012;2023-07-13T02:53:20;99575.94;;;20.27;97.57
79362;BME280;68830;47.566;19.012;2023-07-13T02:56:24;99572.00;;;20.29;98.34
79362;BME280;68830;47.566;19.012;2023-07-13T02:59:26;99562.72;;;20.25;97.78
79362;BME280;68830;47.566;19.012;2023-07-13T03:02:30;99547.69;;;20.18;97.79
79362;BME280;68830;47.566;19.012;2023-07-13T03:05:32;99583.56;;;20.30;98.62
79362;BME280;68830;47.566;19.012;2023-07-13T03:08:35;99588.47;;;20.40;98.37
79362;BME280;68830;47.566;19.012;2023-07-13T03:11:38;99586.81;;;20.39;97.86
79362;BME280;68830;47.566;19.012;2023-07-13T03:14:40;99601.28;;;20.63;96.34
79362;BME280;68830;47.566;19.012;2023-07-13T03:17:42;99601.38;;;20.74;96.34
79362;BME280;68830;47.566;19.012;2023-07-13T03:20:44;99592.63;;;20.79;94.32
79362;BME280;68830;47.566;19.012;2023-07-13T03:23:47;99587.09;;;20.92;93.75
79362;BME280;68830;47.566;19.012;2023-07-13T03:26:50;99580.66;;;20.93;94.62
79362;BME280;68830;47.566;19.012;2023-07-13T03:29:52;99577.97;;;20.93;95.53
79362;BME280;68830;47.566;19.012;2023-07-13T03:32:54;99588.59;;;20.88;96.36
79362;BME280;68830;47.566;19.012;2023-07-13T03:35:56;99566.75;;;20.78;96.72
79362;BME280;68830;47.566;19.012;2023-07-13T03:39:01;99572.09;;;20.84;96.43
79362;BME280;68830;47.566;19.012;2023-07-13T03:42:04;99579.63;;;20.94;95.88
79362;BME280;68830;47.566;19.012;2023-07-13T03:45:07;99605.34;;;21.08;94.21
79362;BME280;68830;47.566;19.012;2023-07-13T03:48:09;99580.97;;;21.03;94.90
79362;BME280;68830;47.566;19.012;2023-07-13T03:51:12;99590.19;;;21.14;92.25
79362;BME280;68830;47.566;19.012;2023-07-13T03:54:17;99595.97;;;21.11;95.12
79362;BME280;68830;47.566;19.012;2023-07-13T03:57:19;99593.81;;;21.19;95.02
79362;BME280;68830;47.566;19.012;2023-07-13T04:00:22;99583.22;;;21.25;92.55
79362;BME280;68830;47.566;19.012;2023-07-13T04:03:24;99590.06;;;21.39;91.35
79362;BME280;68830;47.566;19.012;2023-07-13T04:06:29;99591.34;;;21.36;94.07
79362;BME280;68830;47.566;19.012;2023-07-13T04:09:32;99611.50;;;21.34;94.76
79362;BME280;68830;47.566;19.012;2023-07-13T04:12:35;99618.28;;;21.36;92.50
79362;BME280;68830;47.566;19.012;2023-07-13T04:15:38;99641.50;;;21.37;93.48
79362;BME280;68830;47.566;19.012;2023-07-13T04:18:41;99645.00;;;21.19;94.01
79362;BME280;68830;47.566;19.012;2023-07-13T04:21:43;99677.44;;;21.06;95.76
79362;BME280;68830;47.566;19.012;2023-07-13T04:24:46;99679.44;;;20.93;96.69
79362;BME280;68830;47.566;19.012;2023-07-13T04:27:49;99677.94;;;20.97;99.94
79362;BME280;68830;47.566;19.012;2023-07-13T04:30:52;99683.50;;;21.02;96.61
79362;BME280;68830;47.566;19.012;2023-07-13T04:33:54;99666.91;;;20.86;96.07
79362;BME280;68830;47.566;19.012;2023-07-13T04:36:56;99686.84;;;20.79;96.03
79362;BME280;68830;47.566;19.012;2023-07-13T04:39:59;99692.72;;;20.69;97.09
79362;BME280;68830;47.566;19.012;2023-07-13T04:43:01;99694.50;;;20.57;98.04
79362;BME280;68830;47.566;19.012;2023-07-13T04:46:04;99698.94;;;20.45;98.52
79362;BME280;68830;47.566;19.012;2023-07-13T04:49:08;99712.16;;;20.46;99.15
79362;BME280;68830;47.566;19.012;2023-07-13T04:52:10;99715.28;;;20.37;99.70
79362;BME280;68830;47.566;19.012;2023-07-13T04:55:14;99732.03;;;20.45;100.00
79362;BME280;68830;47.566;19.012;2023-07-13T04:58:17;99741.59;;;20.41;100.00
79362;BME280;68830;47.566;19.012;2023-07-13T05:01:19;99761.25;;;20.42;100.00
79362;BME280;68830;47.566;19.012;2023-07-13T05:04:21;99783.59;;;20.42;100.00
79362;BME280;68830;47.566;19.012;2023-07-13T05:07:24;99830.09;;;20.49;100.00
79362;BME280;68830;47.566;19.012;2023-07-13T05:10:27;99855.72;;;20.52;100.00
79362;BME280;68830;47.566;19.012;2023-07-13T05:13:30;99887.94;;;20.65;97.67
79362;BME280;68830;47.566;19.012;2023-07-13T05:16:32;99896.78;;;20.79;99.37
79362;BME280;68830;47.566;19.012;2023-07-13T05:19:34;99894.34;;;20.71;100.00
79362;BME280;68830;47.566;19.012;2023-07-13T05:22:37;99883.81;;;20.63;100.00
79362;BME280;68830;47.566;19.012;2023-07-13T05:25:40;99885.53;;;20.50;100.00
79362;BME280;68830;47.566;19.012;2023-07-13T05:28:42;99872.75;;;20.46;100.00
79362;BME280;68830;47.566;19.012;2023-07-13T05:31:45;99874.22;;;20.42;100.00
79362;BME280;68830;47.566;19.012;2023-07-13T05:34:47;99851.53;;;20.18;100.00
79362;BME280;68830;47.566;19.012;2023-07-13T05:37:50;99877.16;;;20.27;100.00
79362;BME280;68830;47.566;19.012;2023-07-13T05:40:54;99885.44;;;20.25;99.92
79362;BME280;68830;47.566;19.012;2023-07-13T05:43:56;99874.69;;;20.19;99.73
79362;BME280;68830;47.566;19.012;2023-07-13T05:46:59;99860.47;;;20.12;99.03
79362;BME280;68830;47.566;19.012;2023-07-13T05:50:01;99854.03;;;20.06;100.00
79362;BME280;68830;47.566;19.012;2023-07-13T05:53:06;99857.63;;;19.93;100.00
79362;BME280;68830;47.566;19.012;2023-07-13T05:56:10;99847.91;;;19.92;100.00
79362;BME280;68830;47.566;19.012;2023-07-13T05:59:12;99835.72;;;19.83;100.00
79362;BME280;68830;47.566;19.012;2023-07-13T06:02:15;99846.69;;;19.75;100.00
79362;BME280;68830;47.566;19.012;2023-07-13T06:05:16;99786.47;;;18.92;100.00
79362;BME280;68830;47.566;19.012;2023-07-13T06:08:18;99774.69;;;18.79;100.00
79362;BME280;68830;47.566;19.012;2023-07-13T06:11:24;99743.97;;;18.75;100.00
79362;BME280;68830;47.566;19.012;2023-07-13T06:14:26;99704.72;;;18.61;100.00
79362;BME280;68830;47.566;19.012;2023-07-13T06:17:28;99565.06;;;18.56;100.00
79362;BME280;68830;47.566;19.012;2023-07-13T06:20:33;99455.75;;;18.45;100.00
79362;BME280;68830;47.566;19.012;2023-07-13T06:23:36;99515.53;;;18.52;100.00
79362;BME280;68830;47.566;19.012;2023-07-13T06:26:40;99440.50;;;18.45;100.00
79362;BME280;68830;47.566;19.012;2023-07-13T06:29:42;99375.28;;;18.51;100.00
79362;BME280;68830;47.566;19.012;2023-07-13T06:32:46;99464.16;;;18.68;100.00
79362;BME280;68830;47.566;19.012;2023-07-13T06:35:48;99483.63;;;18.95;100.00
79362;BME280;68830;47.566;19.012;2023-07-13T06:38:50;99471.88;;;19.28;100.00
79362;BME280;68830;47.566;19.012;2023-07-13T06:41:54;99510.78;;;19.50;100.00
79362;BME280;68830;47.566;19.012;2023-07-13T06:44:56;99523.28;;;19.69;100.00
79362;BME280;68830;47.566;19.012;2023-07-13T06:47:58;99523.34;;;19.88;100.00
79362;BME280;68830;47.566;19.012;2023-07-13T06:51:02;99499.25;;;19.99;100.00
79362;BME280;68830;47.566;19.012;2023-07-13T06:54:04;99498.00;;;20.20;100.00
79362;BME280;68830;47.566;19.012;2023-07-13T06:57:07;99500.88;;;20.25;100.00
79362;BME280;68830;47.566;19.012;2023-07-13T07:00:11;99484.53;;;20.27;100.00
79362;BME280;68830;47.566;19.012;2023-07-13T07:03:13;99490.63;;;20.16;100.00
79362;BME280;68830;47.566;19.012;2023-07-13T07:06:18;99472.97;;;20.02;100.00
79362;BME280;68830;47.566;19.012;2023-07-13T07:09:21;99480.69;;;20.35;100.00
79362;BME280;68830;47.566;19.012;2023-07-13T07:12:24;99608.38;;;20.32;100.00
79362;BME280;68830;47.566;19.012;2023-07-13T07:15:26;99630.91;;;20.81;100.00
79362;BME280;68830;47.566;19.012;2023-07-13T07:18:28;99629.44;;;21.22;100.00
79362;BME280;68830;47.566;19.012;2023-07-13T07:21:30;99643.78;;;21.52;100.00
79362;BME280;68830;47.566;19.012;2023-07-13T07:24:33;99633.31;;;21.44;100.00
79362;BME280;68830;47.566;19.012;2023-07-13T07:27:37;99646.78;;;20.89;100.00
79362;BME280;68830;47.566;19.012;2023-07-13T07:30:42;99661.50;;;20.68;100.00
79362;BME280;68830;47.566;19.012;2023-07-13T07:33:48;99641.84;;;20.68;100.00
79362;BME280;68830;47.566;19.012;2023-07-13T07:36:53;99635.00;;;20.40;100.00
79362;BME280;68830;47.566;19.012;2023-07-13T07:39:58;99645.56;;;20.42;100.00
79362;BME280;68830;47.566;19.012;2023-07-13T07:43:05;99655.28;;;20.68;100.00
79362;BME280;68830;47.566;19.012;2023-07-13T07:46:07;99674.84;;;21.00;100.00
79362;BME280;68830;47.566;19.012;2023-07-13T07:49:10;99667.41;;;20.95;100.00
79362;BME280;68830;47.566;19.012;2023-07-13T07:52:12;99672.53;;;21.40;100.00
79362;BME280;68830;47.566;19.012;2023-07-13T07:55:14;99668.94;;;21.64;99.52
79362;BME280;68830;47.566;19.012;2023-07-13T07:58:21;99662.34;;;21.60;97.90
79362;BME280;68830;47.566;19.012;2023-07-13T08:01:26;99663.66;;;21.99;96.52
79362;BME280;68830;47.566;19.012;2023-07-13T08:04:31;99664.09;;;22.15;95.69
79362;BME280;68830;47.566;19.012;2023-07-13T08:07:37;99662.88;;;22.52;95.15
79362;BME280;68830;47.566;19.012;2023-07-13T08:10:40;99663.13;;;22.86;95.69
79362;BME280;68830;47.566;19.012;2023-07-13T08:13:44;99649.50;;;22.92;91.67
79362;BME280;68830;47.566;19.012;2023-07-13T08:16:45;99659.78;;;22.49;90.79
79362;BME280;68830;47.566;19.012;2023-07-13T08:19:48;99671.31;;;22.56;89.40
79362;BME280;68830;47.566;19.012;2023-07-13T08:22:50;99689.19;;;22.92;91.04
79362;BME280;68830;47.566;19.012;2023-07-13T08:25:53;99673.41;;;23.12;91.56
79362;BME280;68830;47.566;19.012;2023-07-13T08:28:58;99661.19;;;23.21;88.46
79362;BME280;68830;47.566;19.012;2023-07-13T08:32:00;99695.66;;;23.54;88.80
79362;BME280;68830;47.566;19.012;2023-07-13T08:35:03;99660.06;;;23.86;88.45
79362;BME280;68830;47.566;19.012;2023-07-13T08:38:05;99689.13;;;23.91;87.23
79362;BME280;68830;47.566;19.012;2023-07-13T08:41:16;99683.81;;;24.41;83.22
79362;BME280;68830;47.566;19.012;2023-07-13T08:44:27;99657.16;;;24.04;83.46
79362;BME280;68830;47.566;19.012;2023-07-13T08:47:32;99666.25;;;23.70;84.02
79362;BME280;68830;47.566;19.012;2023-07-13T08:50:46;99677.19;;;23.75;83.33
79362;BME280;68830;47.566;19.012;2023-07-13T08:54:03;99689.28;;;24.01;85.27
79362;BME280;68830;47.566;19.012;2023-07-13T08:57:12;99675.88;;;24.06;83.39
79362;BME280;68830;47.566;19.012;2023-07-13T09:00:16;99682.84;;;24.19;82.25
79362;BME280;68830;47.566;19.012;2023-07-13T09:03:23;99712.09;;;24.50;81.26
79362;BME280;68830;47.566;19.012;2023-07-13T09:06:31;99695.34;;;24.87;79.38
79362;BME280;68830;47.566;19.012;2023-07-13T09:09:45;99693.22;;;24.72;80.65
79362;BME280;68830;47.566;19.012;2023-07-13T09:13:03;99698.88;;;25.04;81.25
79362;BME280;68830;47.566;19.012;2023-07-13T09:16:11;99694.28;;;25.05;79.66
79362;BME280;68830;47.566;19.012;2023-07-13T09:19:23;99679.25;;;25.14;79.10
79362;BME280;68830;47.566;19.012;2023-07-13T09:22:27;99688.97;;;25.31;77.01
79362;BME280;68830;47.566;19.012;2023-07-13T09:25:32;99699.69;;;25.65;76.39
79362;BME280;68830;47.566;19.012;2023-07-13T09:28:38;99678.22;;;25.42;72.88
79362;BME280;68830;47.566;19.012;2023-07-13T09:31:47;99683.28;;;25.55;74.60
79362;BME280;68830;47.566;19.012;2023-07-13T09:34:51;99692.25;;;25.33;75.76
79362;BME280;68830;47.566;19.012;2023-07-13T09:37:58;99684.66;;;25.57;76.04
79362;BME280;68830;47.566;19.012;2023-07-13T09:41:18;99710.94;;;25.74;74.22
79362;BME280;68830;47.566;19.012;2023-07-13T09:44:28;99705.19;;;25.70;74.03
79362;BME280;68830;47.566;19.012;2023-07-13T09:47:39;99717.41;;;25.95;75.16
79362;BME280;68830;47.566;19.012;2023-07-13T09:50:43;99711.56;;;26.08;74.79
79362;BME280;68830;47.566;19.012;2023-07-13T09:53:45;99705.59;;;26.06;73.06
79362;BME280;68830;47.566;19.012;2023-07-13T09:56:47;99718.53;;;26.26;72.38
79362;BME280;68830;47.566;19.012;2023-07-13T09:59:51;99696.53;;;26.22;71.09
79362;BME280;68830;47.566;19.012;2023-07-13T10:03:09;99718.53;;;25.99;71.85
79362;BME280;68830;47.566;19.012;2023-07-13T10:06:19;99712.22;;;26.47;73.00
79362;BME280;68830;47.566;19.012;2023-07-13T10:09:21;99709.19;;;26.75;70.97
79362;BME280;68830;47.566;19.012;2023-07-13T10:12:24;99722.13;;;26.63;69.90
79362;BME280;68830;47.566;19.012;2023-07-13T10:15:27;99713.28;;;26.41;70.59
79362;BME280;68830;47.566;19.012;2023-07-13T10:18:38;99710.13;;;26.54;71.49
79362;BME280;68830;47.566;19.012;2023-07-13T10:21:43;99705.97;;;26.46;71.97
79362;BME280;68830;47.566;19.012;2023-07-13T10:24:50;99713.09;;;27.27;71.16
79362;BME280;68830;47.566;19.012;2023-07-13T10:27:55;99712.22;;;26.79;66.84
79362;BME280;68830;47.566;19.012;2023-07-13T10:31:01;99711.19;;;26.85;69.03
79362;BME280;68830;47.566;19.012;2023-07-13T10:34:09;99724.41;;;26.76;67.06
79362;BME280;68830;47.566;19.012;2023-07-13T10:37:17;99720.66;;;27.15;67.42
79362;BME280;68830;47.566;19.012;2023-07-13T10:40:26;99725.31;;;26.82;62.24
79362;BME280;68830;47.566;19.012;2023-07-13T10:43:34;99727.53;;;26.95;63.42
79362;BME280;68830;47.566;19.012;2023-07-13T10:46:39;99711.50;;;26.94;60.93
79362;BME280;68830;47.566;19.012;2023-07-13T10:49:44;99726.34;;;27.13;60.46
79362;BME280;68830;47.566;19.012;2023-07-13T10:52:49;99684.53;;;26.45;62.82
79362;BME280;68830;47.566;19.012;2023-07-13T10:55:58;99724.31;;;26.98;62.55
79362;BME280;68830;47.566;19.012;2023-07-13T10:59:10;99720.94;;;27.18;61.69
79362;BME280;68830;47.566;19.012;2023-07-13T11:02:22;99722.13;;;27.37;60.10
79362;BME280;68830;47.566;19.012;2023-07-13T11:05:30;99728.59;;;27.26;59.50
79362;BME280;68830;47.566;19.012;2023-07-13T11:08:36;99710.69;;;27.40;61.70
79362;BME280;68830;47.566;19.012;2023-07-13T11:11:39;99708.09;;;27.61;59.96
79362;BME280;68830;47.566;19.012;2023-07-13T11:14:44;99710.41;;;27.32;58.20
79362;BME280;68830;47.566;19.012;2023-07-13T11:18:10;99713.94;;;27.32;59.00
79362;BME280;68830;47.566;19.012;2023-07-13T11:21:23;99730.22;;;27.85;58.02
79362;BME280;68830;47.566;19.012;2023-07-13T11:28:17;99707.31;;;27.71;57.63
79362;BME280;68830;47.566;19.012;2023-07-13T11:31:22;99712.81;;;27.81;59.40
79362;BME280;68830;47.566;19.012;2023-07-13T11:34:31;99720.72;;;27.87;57.30
79362;BME280;68830;47.566;19.012;2023-07-13T11:37:38;99704.44;;;28.18;54.86
79362;BME280;68830;47.566;19.012;2023-07-13T11:40:41;99714.44;;;27.77;54.52
79362;BME280;68830;47.566;19.012;2023-07-13T11:43:45;99721.78;;;27.81;55.79
79362;BME280;68830;47.566;19.012;2023-07-13T11:46:52;99708.75;;;27.98;55.85
79362;BME280;68830;47.566;19.012;2023-07-13T11:49:57;99722.88;;;27.80;56.59
79362;BME280;68830;47.566;19.012;2023-07-13T11:53:01;99714.00;;;27.48;57.44
79362;BME280;68830;47.566;19.012;2023-07-13T11:56:03;99706.19;;;27.61;58.07
79362;BME280;68830;47.566;19.012;2023-07-13T11:59:07;99713.38;;;27.98;58.79
79362;BME280;68830;47.566;19.012;2023-07-13T12:02:16;99729.56;;;27.57;58.09
79362;BME280;68830;47.566;19.012;2023-07-13T12:05:22;99713.44;;;27.40;58.16
79362;BME280;68830;47.566;19.012;2023-07-13T12:08:26;99702.31;;;27.42;58.04
79362;BME280;68830;47.566;19.012;2023-07-13T12:11:29;99699.06;;;27.55;56.78
79362;BME280;68830;47.566;19.012;2023-07-13T12:14:33;99705.00;;;28.20;56.59
79362;BME280;68830;47.566;19.012;2023-07-13T12:17:35;99692.91;;;27.70;57.71
79362;BME280;68830;47.566;19.012;2023-07-13T12:20:38;99690.00;;;28.12;56.62
79362;BME280;68830;47.566;19.012;2023-07-13T12:23:44;99700.28;;;27.75;55.90
79362;BME280;68830;47.566;19.012;2023-07-13T12:26:51;99705.69;;;27.64;56.07
79362;BME280;68830;47.566;19.012;2023-07-13T12:29:59;99698.16;;;27.92;54.76
79362;BME280;68830;47.566;19.012;2023-07-13T12:33:06;99681.28;;;28.15;55.86
79362;BME280;68830;47.566;19.012;2023-07-13T12:36:12;99690.03;;;28.22;54.75
79362;BME280;68830;47.566;19.012;2023-07-13T12:39:20;99675.31;;;28.08;52.85
79362;BME280;68830;47.566;19.012;2023-07-13T12:42:24;99678.88;;;28.19;53.66
79362;BME280;68830;47.566;19.012;2023-07-13T12:45:30;99671.53;;;28.40;56.00
79362;BME280;68830;47.566;19.012;2023-07-13T12:48:38;99675.09;;;28.50;57.07
79362;BME280;68830;47.566;19.012;2023-07-13T12:51:56;99663.34;;;28.45;55.43
79362;BME280;68830;47.566;19.012;2023-07-13T12:55:07;99679.16;;;28.63;52.64
79362;BME280;68830;47.566;19.012;2023-07-13T12:58:20;99693.06;;;28.36;53.11
79362;BME280;68830;47.566;19.012;2023-07-13T13:01:26;99684.59;;;28.33;54.74
79362;BME280;68830;47.566;19.012;2023-07-13T13:04:30;99691.44;;;28.40;52.37
79362;BME280;68830;47.566;19.012;2023-07-13T13:07:33;99699.03;;;28.48;53.97
79362;BME280;68830;47.566;19.012;2023-07-13T13:10:37;99689.22;;;28.98;53.03
79362;BME280;68830;47.566;19.012;2023-07-13T13:13:39;99684.88;;;28.56;51.28
79362;BME280;68830;47.566;19.012;2023-07-13T13:16:46;99671.81;;;28.53;53.30
79362;BME280;68830;47.566;19.012;2023-07-13T13:19:51;99683.53;;;28.54;51.96
79362;BME280;68830;47.566;19.012;2023-07-13T13:22:56;99663.63;;;28.43;52.56
79362;BME280;68830;47.566;19.012;2023-07-13T13:26:00;99672.34;;;28.61;52.72
79362;BME280;68830;47.566;19.012;2023-07-13T13:29:10;99662.78;;;28.83;50.72
79362;BME280;68830;47.566;19.012;2023-07-13T13:32:15;99645.66;;;28.52;50.90
79362;BME280;68830;47.566;19.012;2023-07-13T13:35:19;99665.50;;;28.99;51.57
79362;BME280;68830;47.566;19.012;2023-07-13T13:38:25;99670.72;;;28.65;52.92
79362;BME280;68830;47.566;19.012;2023-07-13T13:41:28;99661.19;;;28.57;52.38
79362;BME280;68830;47.566;19.012;2023-07-13T13:44:30;99650.50;;;29.01;52.98
79362;BME280;68830;47.566;19.012;2023-07-13T13:47:33;99650.50;;;28.86;51.85
79362;BME280;68830;47.566;19.012;2023-07-13T13:50:36;99639.06;;;28.74;52.46
79362;BME280;68830;47.566;19.012;2023-07-13T13:53:38;99651.75;;;29.24;52.09
79362;BME280;68830;47.566;19.012;2023-07-13T13:56:43;99644.50;;;28.84;51.67
79362;BME280;68830;47.566;19.012;2023-07-13T13:59:46;99641.78;;;28.84;52.71
79362;BME280;68830;47.566;19.012;2023-07-13T14:02:48;99646.47;;;28.53;52.20
79362;BME280;68830;47.566;19.012;2023-07-13T14:05:54;99654.88;;;28.72;52.73
79362;BME280;68830;47.566;19.012;2023-07-13T14:08:57;99663.34;;;28.55;52.59
79362;BME280;68830;47.566;19.012;2023-07-13T14:12:01;99663.91;;;28.26;54.61
79362;BME280;68830;47.566;19.012;2023-07-13T14:15:03;99667.69;;;28.10;54.02
79362;BME280;68830;47.566;19.012;2023-07-13T14:18:08;99672.84;;;28.12;53.76
79362;BME280;68830;47.566;19.012;2023-07-13T14:21:14;99670.16;;;28.32;56.15
79362;BME280;68830;47.566;19.012;2023-07-13T14:24:16;99643.16;;;27.95;56.63
79362;BME280;68830;47.566;19.012;2023-07-13T14:27:21;99676.03;;;27.68;55.95
79362;BME280;68830;47.566;19.012;2023-07-13T14:30:23;99669.03;;;28.08;56.62
79362;BME280;68830;47.566;19.012;2023-07-13T14:33:25;99674.19;;;27.89;55.41
79362;BME280;68830;47.566;19.012;2023-07-13T14:36:31;99656.34;;;27.56;57.16
79362;BME280;68830;47.566;19.012;2023-07-13T14:39:34;99691.72;;;27.51;55.56
79362;BME280;68830;47.566;19.012;2023-07-13T14:42:38;99698.84;;;27.62;55.43
79362;BME280;68830;47.566;19.012;2023-07-13T14:45:42;99690.16;;;27.65;56.75
79362;BME280;68830;47.566;19.012;2023-07-13T14:48:45;99700.34;;;27.37;55.62
79362;BME280;68830;47.566;19.012;2023-07-13T14:51:47;99701.50;;;27.47;56.66
79362;BME280;68830;47.566;19.012;2023-07-13T14:54:50;99700.41;;;27.43;55.70
79362;BME280;68830;47.566;19.012;2023-07-13T14:57:53;99698.25;;;27.55;55.22
79362;BME280;68830;47.566;19.012;2023-07-13T15:00:56;99706.47;;;27.60;56.29
79362;BME280;68830;47.566;19.012;2023-07-13T15:04:00;99692.03;;;27.59;54.39
79362;BME280;68830;47.566;19.012;2023-07-13T15:07:03;99692.09;;;27.69;54.09
79362;BME280;68830;47.566;19.012;2023-07-13T15:10:13;99706.41;;;27.55;53.72
79362;BME280;68830;47.566;19.012;2023-07-13T15:13:19;99690.81;;;27.30;53.66
79362;BME280;68830;47.566;19.012;2023-07-13T15:16:24;99724.06;;;27.42;56.10
79362;BME280;68830;47.566;19.012;2023-07-13T15:19:27;99724.28;;;27.30;54.88
79362;BME280;68830;47.566;19.012;2023-07-13T15:22:29;99732.97;;;27.32;54.32
79362;BME280;68830;47.566;19.012;2023-07-13T15:25:33;99714.69;;;27.23;54.46
79362;BME280;68830;47.566;19.012;2023-07-13T15:28:36;99706.06;;;26.94;55.10
79362;BME280;68830;47.566;19.012;2023-07-13T15:31:38;99708.84;;;26.99;56.61
79362;BME280;68830;47.566;19.012;2023-07-13T15:34:41;99717.50;;;26.96;56.45
79362;BME280;68830;47.566;19.012;2023-07-13T15:37:45;99706.53;;;27.23;55.28
79362;BME280;68830;47.566;19.012;2023-07-13T15:40:48;99719.03;;;27.19;54.78
79362;BME280;68830;47.566;19.012;2023-07-13T15:43:54;99703.03;;;26.85;57.59
79362;BME280;68830;47.566;19.012;2023-07-13T15:46:57;99697.34;;;26.92;56.68
79362;BME280;68830;47.566;19.012;2023-07-13T15:50:02;99691.81;;;26.76;59.50
79362;BME280;68830;47.566;19.012;2023-07-13T15:53:04;99681.72;;;26.67;59.79
79362;BME280;68830;47.566;19.012;2023-07-13T15:56:19;99672.97;;;26.60;60.18
79362;BME280;68830;47.566;19.012;2023-07-13T15:59:23;99685.16;;;26.57;58.02
79362;BME280;68830;47.566;19.012;2023-07-13T16:02:25;99652.53;;;26.52;57.81
79362;BME280;68830;47.566;19.012;2023-07-13T16:05:27;99689.81;;;26.62;60.37